sensor_id;sensor_type;location;lat;lon;timestamp;P1;durP1;ratioP1;P2;durP2;ratioP2
22861;SDS011;11598;50.652;6.172;2023-06-14T00:05:43;8.30;;;4.47;;
22861;SDS011;11598;50.652;6.172;2023-06-14T00:15:44;8.95;;;4.70;;
22861;SDS011;11598;50.652;6.172;2023-06-14T00:25:46;9.00;;;4.13;;
22861;SDS011;11598;50.652;6.172;2023-06-14T00:35:47;8.00;;;4.97;;
22861;SDS011;11598;50.652;6.172;2023-06-14T00:45:48;7.77;;;4.07;;
22861;SDS011;11598;50.652;6.172;2023-06-14T00:55:49;7.32;;;4.82;;
22861;SDS011;11598;50.652;6.172;2023-06-14T01:05:51;7.13;;;4.47;;
22861;SDS011;11598;50.652;6.172;2023-06-14T01:15:58;7.30;;;4.80;;
22861;SDS011;11598;50.652;6.172;2023-06-14T01:25:59;8.25;;;4.53;;
22861;SDS011;11598;50.652;6.172;2023-06-14T01:36:03;10.20;;;5.03;;
22861;SDS011;11598;50.652;6.172;2023-06-14T01:56:08;7.60;;;4.03;;
22861;SDS011;11598;50.652;6.172;2023-06-14T02:06:08;7.18;;;4.35;;
22861;SDS011;11598;50.652;6.172;2023-06-14T02:16:10;8.10;;;4.68;;
22861;SDS011;11598;50.652;6.172;2023-06-14T02:26:10;7.88;;;4.15;;
22861;SDS011;11598;50.652;6.172;2023-06-14T02:36:11;7.45;;;4.47;;
22861;SDS011;11598;50.652;6.172;2023-06-14T02:46:11;7.90;;;4.18;;
22861;SDS011;11598;50.652;6.172;2023-06-14T02:56:11;6.45;;;4.18;;
22861;SDS011;11598;50.652;6.172;2023-06-14T03:06:12;9.15;;;3.75;;
22861;SDS011;11598;50.652;6.172;2023-06-14T03:16:14;9.35;;;4.30;;
22861;SDS011;11598;50.652;6.172;2023-06-14T03:26:14;9.13;;;3.72;;
22861;SDS011;11598;50.652;6.172;2023-06-14T03:36:17;8.77;;;4.70;;
22861;SDS011;11598;50.652;6.172;2023-06-14T03:46:18;8.85;;;3.90;;
22861;SDS011;11598;50.652;6.172;2023-06-14T03:56:19;8.65;;;4.55;;
22861;SDS011;11598;50.652;6.172;2023-06-14T04:06:19;10.75;;;4.68;;
22861;SDS011;11598;50.652;6.172;2023-06-14T04:16:19;9.38;;;4.35;;
22861;SDS011;11598;50.652;6.172;2023-06-14T04:26:21;7.38;;;4.28;;
22861;SDS011;11598;50.652;6.172;2023-06-14T04:36:23;7.45;;;3.70;;
22861;SDS011;11598;50.652;6.172;2023-06-14T04:46:24;9.57;;;4.10;;
22861;SDS011;11598;50.652;6.172;2023-06-14T04:56:28;7.33;;;4.20;;
22861;SDS011;11598;50.652;6.172;2023-06-14T05:06:29;6.25;;;3.92;;
22861;SDS011;11598;50.652;6.172;2023-06-14T05:16:30;10.35;;;3.75;;
22861;SDS011;11598;50.652;6.172;2023-06-14T05:26:30;8.20;;;3.22;;
22861;SDS011;11598;50.652;6.172;2023-06-14T05:36:31;10.87;;;4.33;;
22861;SDS011;11598;50.652;6.172;2023-06-14T05:46:32;9.05;;;3.85;;
22861;SDS011;11598;50.652;6.172;2023-06-14T05:56:32;8.60;;;3.75;;
22861;SDS011;11598;50.652;6.172;2023-06-14T06:06:32;10.30;;;3.72;;
22861;SDS011;11598;50.652;6.172;2023-06-14T06:16:35;9.20;;;3.65;;
22861;SDS011;11598;50.652;6.172;2023-06-14T06:26:36;10.98;;;4.43;;
22861;SDS011;11598;50.652;6.172;2023-06-14T06:36:37;8.60;;;3.47;;
22861;SDS011;11598;50.652;6.172;2023-06-14T06:46:37;8.27;;;4.15;;
22861;SDS011;11598;50.652;6.172;2023-06-14T06:56:40;9.30;;;3.55;;
22861;SDS011;11598;50.652;6.172;2023-06-14T07:06:41;13.52;;;3.60;;
22861;SDS011;11598;50.652;6.172;2023-06-14T07:16:42;9.70;;;3.58;;
22861;SDS011;11598;50.652;6.172;2023-06-14T07:26:43;9.63;;;4.00;;
22861;SDS011;11598;50.652;6.172;2023-06-14T07:36:43;10.13;;;3.63;;
22861;SDS011;11598;50.652;6.172;2023-06-14T07:46:44;8.35;;;3.60;;
22861;SDS011;11598;50.652;6.172;2023-06-14T07:56:49;8.80;;;3.55;;
22861;SDS011;11598;50.652;6.172;2023-06-14T08:06:50;5.55;;;3.13;;
22861;SDS011;11598;50.652;6.172;2023-06-14T08:16:50;9.85;;;3.63;;
22861;SDS011;11598;50.652;6.172;2023-06-14T08:26:51;8.02;;;3.65;;
22861;SDS011;11598;50.652;6.172;2023-06-14T08:36:51;10.32;;;3.40;;
22861;SDS011;11598;50.652;6.172;2023-06-14T08:57:49;9.15;;;3.42;;
22861;SDS011;11598;50.652;6.172;2023-06-14T09:07:50;9.43;;;3.33;;
22861;SDS011;11598;50.652;6.172;2023-06-14T09:17:51;6.28;;;2.78;;
22861;SDS011;11598;50.652;6.172;2023-06-14T09:27:51;6.25;;;2.72;;
22861;SDS011;11598;50.652;6.172;2023-06-14T09:37:51;8.20;;;2.80;;
22861;SDS011;11598;50.652;6.172;2023-06-14T09:47:52;5.70;;;2.53;;
22861;SDS011;11598;50.652;6.172;2023-06-14T09:57:52;7.20;;;3.17;;
22861;SDS011;11598;50.652;6.172;2023-06-14T10:07:58;9.18;;;2.60;;
22861;SDS011;11598;50.652;6.172;2023-06-14T10:28:25;6.38;;;1.90;;
22861;SDS011;11598;50.652;6.172;2023-06-14T10:38:29;8.25;;;2.28;;
22861;SDS011;11598;50.652;6.172;2023-06-14T10:48:30;9.52;;;2.30;;
22861;SDS011;11598;50.652;6.172;2023-06-14T10:58:31;6.75;;;2.83;;
22861;SDS011;11598;50.652;6.172;2023-06-14T11:08:52;4.10;;;2.28;;
22861;SDS011;11598;50.652;6.172;2023-06-14T11:19:08;5.18;;;2.47;;
22861;SDS011;11598;50.652;6.172;2023-06-14T11:29:10;5.35;;;2.30;;
22861;SDS011;11598;50.652;6.172;2023-06-14T11:39:10;5.90;;;1.92;;
22861;SDS011;11598;50.652;6.172;2023-06-14T11:49:11;5.18;;;2.00;;
22861;SDS011;11598;50.652;6.172;2023-06-14T11:59:12;5.57;;;2.05;;
22861;SDS011;11598;50.652;6.172;2023-06-14T12:09:13;4.78;;;1.92;;
22861;SDS011;11598;50.652;6.172;2023-06-14T12:19:17;4.88;;;1.65;;
22861;SDS011;11598;50.652;6.172;2023-06-14T12:29:18;6.70;;;1.70;;
22861;SDS011;11598;50.652;6.172;2023-06-14T12:39:20;4.38;;;2.20;;
22861;SDS011;11598;50.652;6.172;2023-06-14T12:49:20;10.38;;;2.58;;
22861;SDS011;11598;50.652;6.172;2023-06-14T12:59:21;6.95;;;1.80;;
22861;SDS011;11598;50.652;6.172;2023-06-14T13:09:22;9.23;;;2.08;;
22861;SDS011;11598;50.652;6.172;2023-06-14T13:19:23;8.00;;;1.90;;
22861;SDS011;11598;50.652;6.172;2023-06-14T13:29:24;6.00;;;1.85;;
22861;SDS011;11598;50.652;6.172;2023-06-14T13:39:25;10.88;;;1.90;;
22861;SDS011;11598;50.652;6.172;2023-06-14T13:49:26;5.07;;;2.00;;
22861;SDS011;11598;50.652;6.172;2023-06-14T13:59:26;4.78;;;1.58;;
22861;SDS011;11598;50.652;6.172;2023-06-14T14:09:26;5.07;;;1.95;;
22861;SDS011;11598;50.652;6.172;2023-06-14T14:19:27;4.47;;;2.08;;
22861;SDS011;11598;50.652;6.172;2023-06-14T14:29:27;7.10;;;2.20;;
22861;SDS011;11598;50.652;6.172;2023-06-14T14:39:31;7.07;;;2.00;;
22861;SDS011;11598;50.652;6.172;2023-06-14T14:49:31;4.50;;;1.90;;
22861;SDS011;11598;50.652;6.172;2023-06-14T14:59:32;7.43;;;2.00;;
22861;SDS011;11598;50.652;6.172;2023-06-14T15:09:32;4.10;;;1.80;;
22861;SDS011;11598;50.652;6.172;2023-06-14T15:19:33;5.40;;;2.05;;
22861;SDS011;11598;50.652;6.172;2023-06-14T15:29:34;6.10;;;2.17;;
22861;SDS011;11598;50.652;6.172;2023-06-14T15:39:35;5.25;;;2.03;;
22861;SDS011;11598;50.652;6.172;2023-06-14T15:49:35;5.70;;;1.40;;
22861;SDS011;11598;50.652;6.172;2023-06-14T15:59:35;5.22;;;1.35;;
22861;SDS011;11598;50.652;6.172;2023-06-14T16:09:36;5.13;;;1.40;;
22861;SDS011;11598;50.652;6.172;2023-06-14T16:19:36;4.13;;;1.40;;
22861;SDS011;11598;50.652;6.172;2023-06-14T16:29:36;3.03;;;1.20;;
22861;SDS011;11598;50.652;6.172;2023-06-14T16:39:37;4.07;;;1.48;;
22861;SDS011;11598;50.652;6.172;2023-06-14T16:49:37;5.00;;;1.33;;
22861;SDS011;11598;50.652;6.172;2023-06-14T16:59:38;3.90;;;1.45;;
22861;SDS011;11598;50.652;6.172;2023-06-14T17:09:38;5.97;;;1.52;;
22861;SDS011;11598;50.652;6.172;2023-06-14T17:19:38;3.22;;;1.40;;
22861;SDS011;11598;50.652;6.172;2023-06-14T17:29:39;5.70;;;1.55;;
22861;SDS011;11598;50.652;6.172;2023-06-14T17:39:39;8.10;;;1.73;;
22861;SDS011;11598;50.652;6.172;2023-06-14T17:49:41;3.83;;;1.90;;
22861;SDS011;11598;50.652;6.172;2023-06-14T17:59:42;3.80;;;1.75;;
22861;SDS011;11598;50.652;6.172;2023-06-14T18:09:43;4.72;;;1.63;;
22861;SDS011;11598;50.652;6.172;2023-06-14T18:19:43;3.30;;;1.48;;
22861;SDS011;11598;50.652;6.172;2023-06-14T18:29:44;5.03;;;1.73;;
22861;SDS011;11598;50.652;6.172;2023-06-14T18:39:46;4.40;;;1.70;;
22861;SDS011;11598;50.652;6.172;2023-06-14T18:49:46;5.75;;;2.10;;
22861;SDS011;11598;50.652;6.172;2023-06-14T18:59:46;4.55;;;2.10;;
22861;SDS011;11598;50.652;6.172;2023-06-14T19:09:47;3.50;;;1.60;;
22861;SDS011;11598;50.652;6.172;2023-06-14T19:19:47;3.88;;;1.60;;
22861;SDS011;11598;50.652;6.172;2023-06-14T19:29:48;5.22;;;1.90;;
22861;SDS011;11598;50.652;6.172;2023-06-14T19:39:48;3.80;;;1.90;;
22861;SDS011;11598;50.652;6.172;2023-06-14T19:49:48;5.25;;;2.20;;
22861;SDS011;11598;50.652;6.172;2023-06-14T19:59:49;3.35;;;1.40;;
22861;SDS011;11598;50.652;6.172;2023-06-14T20:09:49;5.95;;;2.15;;
22861;SDS011;11598;50.652;6.172;2023-06-14T20:19:50;5.50;;;2.10;;
22861;SDS011;11598;50.652;6.172;2023-06-14T20:29:50;4.28;;;1.70;;
22861;SDS011;11598;50.652;6.172;2023-06-14T20:39:55;9.95;;;2.20;;
22861;SDS011;11598;50.652;6.172;2023-06-14T20:50:08;13.30;;;2.50;;
22861;SDS011;11598;50.652;6.172;2023-06-14T21:00:11;7.00;;;2.10;;
22861;SDS011;11598;50.652;6.172;2023-06-14T21:10:12;7.03;;;2.28;;
22861;SDS011;11598;50.652;6.172;2023-06-14T21:20:12;8.20;;;1.95;;
22861;SDS011;11598;50.652;6.172;2023-06-14T21:30:15;12.63;;;3.35;;
22861;SDS011;11598;50.652;6.172;2023-06-14T21:40:16;6.13;;;2.27;;
22861;SDS011;11598;50.652;6.172;2023-06-14T21:50:17;6.03;;;2.42;;
22861;SDS011;11598;50.652;6.172;2023-06-14T22:00:18;9.55;;;1.90;;
22861;SDS011;11598;50.652;6.172;2023-06-14T22:10:21;4.40;;;1.92;;
22861;SDS011;11598;50.652;6.172;2023-06-14T22:20:21;5.07;;;2.08;;
22861;SDS011;11598;50.652;6.172;2023-06-14T22:30:23;4.78;;;2.45;;
22861;SDS011;11598;50.652;6.172;2023-06-14T22:40:24;6.80;;;2.17;;
22861;SDS011;11598;50.652;6.172;2023-06-14T22:50:25;4.95;;;2.67;;
22861;SDS011;11598;50.652;6.172;2023-06-14T23:00:26;5.35;;;2.47;;
22861;SDS011;11598;50.652;6.172;2023-06-14T23:10:26;4.47;;;2.13;;
22861;SDS011;11598;50.652;6.172;2023-06-14T23:20:27;4.60;;;2.45;;
22861;SDS011;11598;50.652;6.172;2023-06-14T23:30:29;9.55;;;2.47;;
22861;SDS011;11598;50.652;6.172;2023-06-14T23:40:33;5.70;;;2.95;;
22861;SDS011;11598;50.652;6.172;2023-06-14T23:50:34;4.47;;;2.10;;
